Time,TemperatureF,DewpointF,PressureIn,WindDirection,WindDirectionDegrees,WindSpeedMPH,WindSpeedGustMPH,Humidity,HourlyPrecipIn,Conditions,Clouds,dailyrainin,SoftwareType,DateUTC
2013-02-07 00:05:00,33.7,29.1,30.04,SE,127,0.0,0.0,83,-99.99,,,0.00,1-wire,2013-02-07 06:05:00,
2013-02-07 00:10:00,33.8,29.2,30.04,SE,128,0.0,0.0,83,-99.99,,,0.00,1-wire,2013-02-07 06:10:00,
2013-02-07 00:15:00,33.5,29.0,30.04,SE,128,0.0,0.0,83,-99.99,,,0.00,1-wire,2013-02-07 06:15:00,
2013-02-07 00:20:00,33.0,28.3,30.04,SE,128,0.0,0.0,83,-99.99,,,0.00,1-wire,2013-02-07 06:20:00,
2013-02-07 00:25:00,32.7,28.2,30.04,North,5,0.0,0.0,83,-99.99,,,0.00,1-wire,2013-02-07 06:25:00,
2013-02-07 00:31:00,32.7,28.3,30.04,North,5,0.0,0.0,84,-99.99,,,0.00,1-wire,2013-02-07 06:31:00,
2013-02-07 00:37:00,32.7,28.3,30.03,NNE,13,0.0,0.0,84,-99.99,,,0.00,1-wire,2013-02-07 06:37:00,
2013-02-07 00:43:00,32.6,28.2,30.03,NNE,13,0.0,0.0,84,-99.99,,,0.00,1-wire,2013-02-07 06:43:00,
2013-02-07 00:49:00,32.6,28.3,30.04,NNE,13,0.0,0.0,84,-99.99,,,0.00,1-wire,2013-02-07 06:49:00,
2013-02-07 00:54:00,32.4,28.2,30.03,North,4,0.0,0.0,84,-99.99,,,0.00,1-wire,2013-02-07 06:54:00,
2013-02-07 00:59:00,32.4,28.2,30.03,North,4,0.0,0.0,84,-99.99,,,0.00,1-wire,2013-02-07 06:59:00,
2013-02-07 01:04:00,32.1,27.9,30.03,North,4,0.0,0.0,84,-99.99,,,0.00,1-wire,2013-02-07 07:04:00,
2013-02-07 01:09:00,32.7,28.6,30.03,North,3,0.0,0.0,84,-99.99,,,0.00,1-wire,2013-02-07 07:09:00,
2013-02-07 01:15:00,32.1,27.9,30.03,North,3,0.0,0.0,84,-99.99,,,0.00,1-wire,2013-02-07 07:15:00,
2013-02-07 01:21:00,32.2,28.1,30.03,NNE,13,0.0,0.0,85,-99.99,,,0.00,1-wire,2013-02-07 07:21:00,
2013-02-07 01:26:00,32.5,28.5,30.03,NNE,13,0.0,0.0,85,-99.99,,,0.00,1-wire,2013-02-07 07:26:00,
2013-02-07 01:31:00,32.8,28.9,30.03,NNE,13,0.0,3.0,85,-99.99,,,0.00,1-wire,2013-02-07 07:31:00,
2013-02-07 01:37:00,32.9,28.9,30.03,NNE,22,0.0,0.0,85,-99.99,,,0.00,1-wire,2013-02-07 07:37:00,
2013-02-07 01:42:00,33.0,28.9,30.03,NNE,22,0.0,0.0,85,-99.99,,,0.00,1-wire,2013-02-07 07:42:00,
2013-02-07 01:47:00,33.0,29.0,30.03,NNE,22,0.0,0.0,85,-99.99,,,0.00,1-wire,2013-02-07 07:47:00,
2013-02-07 01:53:00,32.9,28.9,30.03,North,11,0.0,0.0,85,-99.99,,,0.00,1-wire,2013-02-07 07:53:00,
2013-02-07 01:59:00,33.0,29.0,30.03,North,11,0.0,0.0,85,-99.99,,,0.00,1-wire,2013-02-07 07:59:00,
2013-02-07 02:05:00,33.2,29.4,30.03,North,11,0.0,0.0,86,-99.99,,,0.00,1-wire,2013-02-07 08:05:00,
2013-02-07 02:10:00,33.2,29.3,30.03,NNE,29,0.0,0.0,86,-99.99,,,0.00,1-wire,2013-02-07 08:10:00,
2013-02-07 02:15:00,33.4,29.6,30.03,NNE,29,0.0,0.0,86,-99.99,,,0.00,1-wire,2013-02-07 08:15:00,
2013-02-07 02:20:00,33.5,29.6,30.03,NNE,29,0.0,0.0,86,-99.99,,,0.00,1-wire,2013-02-07 08:20:00,
2013-02-07 02:25:00,33.2,29.3,30.02,East,96,0.0,0.0,85,-99.99,,,0.00,1-wire,2013-02-07 08:25:00,
2013-02-07 02:30:00,33.1,29.4,30.02,East,96,0.0,0.0,86,-99.99,,,0.00,1-wire,2013-02-07 08:30:00,
2013-02-07 02:35:00,33.4,29.6,30.02,East,96,0.0,0.0,86,-99.99,,,0.00,1-wire,2013-02-07 08:35:00,
2013-02-07 02:40:00,33.5,29.9,30.02,East,96,0.0,0.0,86,-99.99,,,0.00,1-wire,2013-02-07 08:40:00,
2013-02-07 02:45:00,33.9,30.2,30.01,East,96,0.0,0.0,86,-99.99,,,0.00,1-wire,2013-02-07 08:45:00,
2013-02-07 02:50:00,33.9,30.1,30.01,East,96,0.0,0.0,86,-99.99,,,0.00,1-wire,2013-02-07 08:50:00,
2013-02-07 02:55:00,33.8,29.9,30.01,East,100,0.0,3.0,86,-99.99,,,0.00,1-wire,2013-02-07 08:55:00,
2013-02-07 03:00:00,33.8,29.9,30.01,East,100,1.0,3.0,86,-99.99,,,0.00,1-wire,2013-02-07 09:00:00,
2013-02-07 03:05:00,34.1,30.3,30.01,East,100,0.0,0.0,86,-99.99,,,0.00,1-wire,2013-02-07 09:05:00,
2013-02-07 03:10:00,34.0,30.1,30.01,ESE,117,0.0,3.0,85,-99.99,,,0.00,1-wire,2013-02-07 09:10:00,
2013-02-07 03:15:00,34.0,30.2,30.01,ESE,117,0.0,3.0,86,-99.99,,,0.00,1-wire,2013-02-07 09:15:00,
2013-02-07 03:20:00,34.0,30.2,30.00,ESE,117,1.0,3.0,86,-99.99,,,0.00,1-wire,2013-02-07 09:20:00,
2013-02-07 03:25:00,33.8,30.2,30.00,SE,129,3.0,6.0,86,-99.99,,,0.01,1-wire,2013-02-07 09:25:00,
2013-02-07 03:30:00,33.8,30.3,30.00,SE,129,1.0,3.0,87,-99.99,,,0.01,1-wire,2013-02-07 09:30:00,
2013-02-07 03:35:00,33.8,30.4,30.00,SE,129,1.0,3.0,87,-99.99,,,0.01,1-wire,2013-02-07 09:35:00,
2013-02-07 03:40:00,33.8,30.5,30.00,SE,136,2.0,6.0,88,-99.99,,,0.01,1-wire,2013-02-07 09:40:00,
2013-02-07 03:45:00,33.7,30.4,30.00,SE,136,1.0,3.0,88,-99.99,,,0.01,1-wire,2013-02-07 09:45:00,
2013-02-07 03:50:00,34.0,30.7,29.99,SE,136,0.0,3.0,88,-99.99,,,0.01,1-wire,2013-02-07 09:50:00,
2013-02-07 03:56:00,33.8,30.6,29.99,SE,130,1.0,3.0,88,-99.99,,,0.01,1-wire,2013-02-07 09:56:00,
2013-02-07 04:01:00,33.8,30.6,29.99,SE,130,1.0,3.0,88,-99.99,,,0.02,1-wire,2013-02-07 10:01:00,
2013-02-07 04:06:00,33.7,30.5,29.99,SE,137,1.0,3.0,88,-99.99,,,0.02,1-wire,2013-02-07 10:06:00,
2013-02-07 04:11:00,33.8,30.6,29.99,SE,137,1.0,3.0,88,-99.99,,,0.02,1-wire,2013-02-07 10:11:00,
2013-02-07 04:16:00,33.7,30.5,29.99,SE,137,3.0,8.0,88,-99.99,,,0.02,1-wire,2013-02-07 10:16:00,
2013-02-07 04:21:00,33.7,30.5,29.99,SE,138,2.0,6.0,88,-99.99,,,0.02,1-wire,2013-02-07 10:21:00,
2013-02-07 04:26:00,33.6,30.5,29.99,SE,138,2.0,6.0,88,-99.99,,,0.02,1-wire,2013-02-07 10:26:00,
2013-02-07 04:31:00,33.6,30.5,29.99,SE,138,1.0,3.0,88,-99.99,,,0.02,1-wire,2013-02-07 10:31:00,
2013-02-07 04:36:00,33.8,30.7,29.99,SE,139,1.0,3.0,88,-99.99,,,0.02,1-wire,2013-02-07 10:36:00,
2013-02-07 04:41:00,33.7,30.6,29.99,SE,139,0.0,3.0,88,-99.99,,,0.02,1-wire,2013-02-07 10:41:00,
2013-02-07 04:46:00,33.8,30.7,29.99,SE,139,0.0,3.0,88,-99.99,,,0.02,1-wire,2013-02-07 10:46:00,
2013-02-07 04:51:00,33.7,30.6,29.99,SE,145,2.0,8.0,88,-99.99,,,0.03,1-wire,2013-02-07 10:51:00,
2013-02-07 04:56:00,33.7,30.7,29.99,SE,145,2.0,6.0,88,-99.99,,,0.03,1-wire,2013-02-07 10:56:00,
2013-02-07 05:01:00,33.6,30.6,29.99,SE,145,0.0,3.0,89,-99.99,,,0.03,1-wire,2013-02-07 11:01:00,
2013-02-07 05:07:00,33.7,30.7,29.99,SSE,152,2.0,6.0,89,-99.99,,,0.03,1-wire,2013-02-07 11:07:00,
2013-02-07 05:13:00,33.5,30.5,29.99,SSE,152,1.0,3.0,89,-99.99,,,0.03,1-wire,2013-02-07 11:13:00,
2013-02-07 05:18:00,33.6,30.7,29.99,SSE,152,0.0,3.0,89,-99.99,,,0.04,1-wire,2013-02-07 11:18:00,
2013-02-07 05:23:00,33.7,30.8,29.99,SSE,148,2.0,6.0,89,-99.99,,,0.04,1-wire,2013-02-07 11:23:00,
2013-02-07 05:28:00,33.7,30.9,29.98,SSE,148,1.0,3.0,89,-99.99,,,0.04,1-wire,2013-02-07 11:28:00,
2013-02-07 05:33:00,33.6,30.6,29.99,SSE,148,2.0,5.0,89,-99.99,,,0.04,1-wire,2013-02-07 11:33:00,
2013-02-07 05:39:00,33.7,30.7,29.99,SSE,152,0.0,3.0,89,-99.99,,,0.04,1-wire,2013-02-07 11:39:00,
2013-02-07 05:44:00,33.6,30.8,29.99,SSE,152,0.0,3.0,89,-99.99,,,0.04,1-wire,2013-02-07 11:44:00,
2013-02-07 05:49:00,33.5,30.7,29.99,SSE,152,2.0,6.0,89,-99.99,,,0.05,1-wire,2013-02-07 11:49:00,
2013-02-07 05:54:00,33.6,30.8,29.99,SSE,151,0.0,3.0,89,-99.99,,,0.05,1-wire,2013-02-07 11:54:00,
2013-02-07 05:59:00,33.4,30.7,29.99,SSE,151,2.0,3.0,90,-99.99,,,0.05,1-wire,2013-02-07 11:59:00,
2013-02-07 06:05:00,33.9,31.4,29.99,SSE,151,0.0,0.0,90,-99.99,,,0.05,1-wire,2013-02-07 12:05:00,
2013-02-07 06:10:00,33.9,31.3,29.99,SE,142,0.0,3.0,90,-99.99,,,0.05,1-wire,2013-02-07 12:10:00,
2013-02-07 06:15:00,33.7,31.0,29.99,SE,142,0.0,3.0,90,-99.99,,,0.05,1-wire,2013-02-07 12:15:00,
2013-02-07 06:20:00,33.5,30.8,29.99,SE,142,2.0,6.0,90,-99.99,,,0.05,1-wire,2013-02-07 12:20:00,
2013-02-07 06:26:00,33.3,30.7,29.99,SE,146,1.0,3.0,90,-99.99,,,0.05,1-wire,2013-02-07 12:26:00,
2013-02-07 06:31:00,33.3,30.8,29.99,SE,146,1.0,6.0,90,-99.99,,,0.05,1-wire,2013-02-07 12:31:00,
2013-02-07 06:36:00,33.3,30.8,29.98,SSE,149,2.0,6.0,90,-99.99,,,0.05,1-wire,2013-02-07 12:36:00,
2013-02-07 06:42:00,33.1,30.7,29.98,SSE,149,2.0,6.0,91,-99.99,,,0.05,1-wire,2013-02-07 12:42:00,
2013-02-07 06:48:00,33.2,30.7,29.98,SSE,149,2.0,6.0,91,-99.99,,,0.05,1-wire,2013-02-07 12:48:00,
2013-02-07 06:53:00,33.0,30.6,29.97,SSE,148,3.0,6.0,91,-99.99,,,0.06,1-wire,2013-02-07 12:53:00,
2013-02-07 06:58:00,33.1,30.8,29.97,SSE,148,1.0,3.0,91,-99.99,,,0.06,1-wire,2013-02-07 12:58:00,
2013-02-07 07:03:00,33.2,30.8,29.97,SSE,148,1.0,6.0,91,-99.99,,,0.06,1-wire,2013-02-07 13:03:00,
2013-02-07 07:08:00,33.0,30.7,29.97,SSE,155,4.0,6.0,91,-99.99,,,0.06,1-wire,2013-02-07 13:08:00,
2013-02-07 07:13:00,33.1,30.8,29.97,SSE,155,2.0,7.0,91,-99.99,,,0.06,1-wire,2013-02-07 13:13:00,
2013-02-07 07:18:00,33.0,30.8,29.97,SSE,155,2.0,3.0,91,-99.99,,,0.06,1-wire,2013-02-07 13:18:00,
2013-02-07 07:23:00,32.9,30.6,29.97,SSE,152,3.0,11.0,91,-99.99,,,0.07,1-wire,2013-02-07 13:23:00,
2013-02-07 07:28:00,33.2,31.0,29.97,SSE,152,1.0,6.0,91,-99.99,,,0.07,1-wire,2013-02-07 13:28:00,
2013-02-07 07:33:00,33.3,31.1,29.97,SSE,152,0.0,3.0,91,-99.99,,,0.07,1-wire,2013-02-07 13:33:00,
2013-02-07 07:38:00,33.4,31.1,29.97,SSE,149,1.0,5.0,91,-99.99,,,0.07,1-wire,2013-02-07 13:38:00,
2013-02-07 07:44:00,33.3,31.1,29.97,SSE,149,3.0,6.0,92,-99.99,,,0.08,1-wire,2013-02-07 13:44:00,
2013-02-07 07:49:00,33.3,31.1,29.98,SSE,149,2.0,6.0,91,-99.99,,,0.08,1-wire,2013-02-07 13:49:00,
2013-02-07 07:54:00,33.4,31.3,29.98,SSE,148,0.0,3.0,92,-99.99,,,0.08,1-wire,2013-02-07 13:54:00,
2013-02-07 07:59:00,33.5,31.3,29.98,SSE,148,0.0,0.0,92,-99.99,,,0.09,1-wire,2013-02-07 13:59:00,
2013-02-07 08:04:00,33.9,31.8,29.98,SSE,148,0.0,0.0,92,-99.99,,,0.10,1-wire,2013-02-07 14:04:00,
2013-02-07 08:09:00,33.9,31.7,29.99,SE,144,1.0,3.0,91,-99.99,,,0.11,1-wire,2013-02-07 14:09:00,
2013-02-07 08:14:00,33.8,31.6,29.99,SE,144,0.0,3.0,92,-99.99,,,0.12,1-wire,2013-02-07 14:14:00,
2013-02-07 08:19:00,34.4,32.2,29.99,SE,144,0.0,0.0,92,-99.99,,,0.13,1-wire,2013-02-07 14:19:00,
2013-02-07 08:24:00,34.4,32.1,29.99,SE,125,0.0,0.0,92,-99.99,,,0.14,1-wire,2013-02-07 14:24:00,
2013-02-07 08:29:00,34.0,31.8,29.99,SE,125,1.0,3.0,92,-99.99,,,0.14,1-wire,2013-02-07 14:29:00,
2013-02-07 08:34:00,33.9,31.7,29.99,SE,125,1.0,3.0,92,-99.99,,,0.15,1-wire,2013-02-07 14:34:00,
2013-02-07 08:39:00,34.0,31.8,29.99,ESE,122,1.0,4.0,92,-99.99,,,0.16,1-wire,2013-02-07 14:39:00,
2013-02-07 08:44:00,34.0,31.8,29.99,ESE,122,0.0,0.0,92,-99.99,,,0.16,1-wire,2013-02-07 14:44:00,
2013-02-07 08:49:00,34.0,31.9,29.99,ESE,122,0.0,0.0,92,-99.99,,,0.18,1-wire,2013-02-07 14:49:00,
2013-02-07 08:54:00,34.0,31.8,29.99,SE,126,1.0,3.0,92,-99.99,,,0.18,1-wire,2013-02-07 14:54:00,
2013-02-07 09:00:00,34.0,31.8,29.99,SE,126,0.0,3.0,91,-99.99,,,0.19,1-wire,2013-02-07 15:00:00,
2013-02-07 09:05:00,34.0,31.9,29.99,SE,126,0.0,0.0,92,-99.99,,,0.19,1-wire,2013-02-07 15:05:00,
2013-02-07 09:10:00,33.8,31.7,29.98,SE,146,2.0,5.0,92,-99.99,,,0.20,1-wire,2013-02-07 15:10:00,
2013-02-07 09:15:00,34.0,31.9,29.98,SE,146,1.0,3.0,92,-99.99,,,0.21,1-wire,2013-02-07 15:15:00,
2013-02-07 09:20:00,34.2,32.1,29.98,SE,146,1.0,3.0,92,-99.99,,,0.22,1-wire,2013-02-07 15:20:00,
2013-02-07 09:25:00,34.3,32.2,29.98,SE,143,0.0,0.0,92,-99.99,,,0.23,1-wire,2013-02-07 15:25:00,
2013-02-07 09:31:00,34.2,32.2,29.99,SE,143,0.0,3.0,92,-99.99,,,0.24,1-wire,2013-02-07 15:31:00,
2013-02-07 09:36:00,34.4,32.3,29.99,SE,142,0.0,3.0,92,-99.99,,,0.24,1-wire,2013-02-07 15:36:00,
2013-02-07 09:41:00,34.3,32.2,29.98,SE,142,1.0,3.0,92,-99.99,,,0.25,1-wire,2013-02-07 15:41:00,
2013-02-07 09:46:00,34.6,32.6,29.98,SE,142,0.0,0.0,92,-99.99,,,0.25,1-wire,2013-02-07 15:46:00,
2013-02-07 09:51:00,34.6,32.4,29.98,SE,142,0.0,0.0,92,-99.99,,,0.25,1-wire,2013-02-07 15:51:00,
2013-02-07 09:56:00,34.9,32.7,29.98,SE,142,0.0,0.0,92,-99.99,,,0.25,1-wire,2013-02-07 15:56:00,
2013-02-07 10:01:00,34.8,32.5,29.98,SE,142,0.0,0.0,91,-99.99,,,0.25,1-wire,2013-02-07 16:01:00,
2013-02-07 10:06:00,34.9,32.6,29.98,SE,142,0.0,0.0,91,-99.99,,,0.25,1-wire,2013-02-07 16:06:00,
2013-02-07 10:11:00,35.0,32.7,29.97,SE,142,0.0,0.0,91,-99.99,,,0.25,1-wire,2013-02-07 16:11:00,
2013-02-07 10:16:00,35.5,33.2,29.97,SE,142,0.0,0.0,91,-99.99,,,0.25,1-wire,2013-02-07 16:16:00,
2013-02-07 10:22:00,35.2,32.9,29.97,SE,143,0.0,0.0,91,-99.99,,,0.25,1-wire,2013-02-07 16:22:00,
2013-02-07 10:27:00,35.4,33.0,29.97,SE,143,0.0,0.0,91,-99.99,,,0.25,1-wire,2013-02-07 16:27:00,
2013-02-07 10:32:00,35.3,32.8,29.97,SE,143,0.0,0.0,91,-99.99,,,0.26,1-wire,2013-02-07 16:32:00,
2013-02-07 10:38:00,35.6,33.1,29.97,SE,129,0.0,0.0,90,-99.99,,,0.26,1-wire,2013-02-07 16:38:00,
2013-02-07 10:43:00,35.6,33.0,29.97,SE,129,0.0,0.0,90,-99.99,,,0.26,1-wire,2013-02-07 16:43:00,
2013-02-07 10:48:00,35.6,32.9,29.97,SE,129,0.0,0.0,90,-99.99,,,0.26,1-wire,2013-02-07 16:48:00,
2013-02-07 10:53:00,35.6,33.0,29.97,SE,130,0.0,0.0,90,-99.99,,,0.26,1-wire,2013-02-07 16:53:00,
2013-02-07 10:58:00,35.4,32.8,29.98,SE,130,0.0,0.0,90,-99.99,,,0.26,1-wire,2013-02-07 16:58:00,
2013-02-07 11:03:00,35.8,33.3,29.98,SE,130,0.0,0.0,91,-99.99,,,0.26,1-wire,2013-02-07 17:03:00,
2013-02-07 11:08:00,35.7,33.2,29.97,ESE,111,0.0,0.0,90,-99.99,,,0.26,1-wire,2013-02-07 17:08:00,
2013-02-07 11:13:00,35.8,33.3,29.98,ESE,111,0.0,0.0,91,-99.99,,,0.26,1-wire,2013-02-07 17:13:00,
2013-02-07 11:18:00,35.7,33.1,29.97,ESE,111,0.0,0.0,90,-99.99,,,0.26,1-wire,2013-02-07 17:18:00,
2013-02-07 11:23:00,35.4,32.9,29.97,NNE,29,0.0,0.0,91,-99.99,,,0.26,1-wire,2013-02-07 17:23:00,
2013-02-07 11:28:00,34.7,32.4,29.97,NNE,29,0.0,0.0,91,-99.99,,,0.26,1-wire,2013-02-07 17:28:00,
2013-02-07 11:33:00,35.1,33.0,29.97,NNE,29,0.0,0.0,92,-99.99,,,0.26,1-wire,2013-02-07 17:33:00,
2013-02-07 11:38:00,35.4,33.1,29.97,NNE,29,0.0,0.0,91,-99.99,,,0.26,1-wire,2013-02-07 17:38:00,
2013-02-07 11:43:00,35.7,33.2,29.97,NNE,29,0.0,0.0,91,-99.99,,,0.26,1-wire,2013-02-07 17:43:00,
2013-02-07 11:48:00,35.8,33.4,29.96,NNE,29,0.0,0.0,91,-99.99,,,0.27,1-wire,2013-02-07 17:48:00,
2013-02-07 11:53:00,35.5,33.1,29.96,NNE,32,0.0,0.0,91,-99.99,,,0.27,1-wire,2013-02-07 17:53:00,
2013-02-07 11:58:00,35.7,33.2,29.96,NNE,32,0.0,0.0,91,-99.99,,,0.27,1-wire,2013-02-07 17:58:00,
2013-02-07 12:03:00,35.2,32.7,29.95,NNE,32,0.0,0.0,90,-99.99,,,0.27,1-wire,2013-02-07 18:03:00,
2013-02-07 12:08:00,35.1,32.5,29.95,NE,44,0.0,0.0,90,-99.99,,,0.27,1-wire,2013-02-07 18:08:00,
2013-02-07 12:13:00,35.4,32.9,29.94,NE,44,0.0,0.0,90,-99.99,,,0.27,1-wire,2013-02-07 18:13:00,
2013-02-07 12:18:00,35.1,32.7,29.94,NE,44,0.0,0.0,91,-99.99,,,0.27,1-wire,2013-02-07 18:18:00,
2013-02-07 12:23:00,35.0,32.5,29.94,NE,47,0.0,0.0,91,-99.99,,,0.27,1-wire,2013-02-07 18:23:00,
2013-02-07 12:28:00,35.2,33.0,29.94,NE,47,0.0,0.0,91,-99.99,,,0.27,1-wire,2013-02-07 18:28:00,
2013-02-07 12:33:00,35.2,33.0,29.94,NE,47,0.0,0.0,92,-99.99,,,0.27,1-wire,2013-02-07 18:33:00,
2013-02-07 12:38:00,34.7,32.5,29.94,NE,46,0.0,3.0,92,-99.99,,,0.27,1-wire,2013-02-07 18:38:00,
2013-02-07 12:43:00,35.0,32.8,29.94,NE,46,0.0,0.0,92,-99.99,,,0.27,1-wire,2013-02-07 18:43:00,
2013-02-07 12:48:00,34.7,32.5,29.94,NE,46,0.0,0.0,92,-99.99,,,0.27,1-wire,2013-02-07 18:48:00,
2013-02-07 12:53:00,34.5,32.4,29.94,NE,40,0.0,3.0,92,-99.99,,,0.27,1-wire,2013-02-07 18:53:00,
2013-02-07 12:58:00,34.5,32.4,29.93,NE,40,0.0,0.0,92,-99.99,,,0.27,1-wire,2013-02-07 18:58:00,
2013-02-07 13:03:00,34.9,32.9,29.93,NE,40,0.0,0.0,92,-99.99,,,0.27,1-wire,2013-02-07 19:03:00,
2013-02-07 13:08:00,34.9,32.9,29.92,NE,42,0.0,3.0,92,-99.99,,,0.27,1-wire,2013-02-07 19:08:00,
2013-02-07 13:13:00,34.8,32.7,29.92,NE,42,0.0,0.0,92,-99.99,,,0.27,1-wire,2013-02-07 19:13:00,
2013-02-07 13:18:00,34.5,32.4,29.92,NE,42,0.0,3.0,92,-99.99,,,0.27,1-wire,2013-02-07 19:18:00,
2013-02-07 13:23:00,34.4,32.4,29.92,NE,53,1.0,3.0,92,-99.99,,,0.27,1-wire,2013-02-07 19:23:00,
2013-02-07 13:28:00,34.9,32.9,29.92,NE,53,0.0,0.0,92,-99.99,,,0.27,1-wire,2013-02-07 19:28:00,
2013-02-07 13:33:00,34.4,32.3,29.92,NE,53,0.0,0.0,92,-99.99,,,0.28,1-wire,2013-02-07 19:33:00,
2013-02-07 13:38:00,34.5,32.5,29.92,NE,51,0.0,3.0,92,-99.99,,,0.28,1-wire,2013-02-07 19:38:00,
2013-02-07 13:43:00,34.4,32.5,29.92,NE,51,0.0,3.0,93,-99.99,,,0.28,1-wire,2013-02-07 19:43:00,
2013-02-07 13:49:00,34.4,32.5,29.92,NE,51,0.0,0.0,93,-99.99,,,0.28,1-wire,2013-02-07 19:49:00,
2013-02-07 13:54:00,34.3,32.4,29.91,NE,54,0.0,3.0,93,-99.99,,,0.28,1-wire,2013-02-07 19:54:00,
2013-02-07 13:59:00,33.9,32.1,29.90,NE,54,0.0,0.0,93,-99.99,,,0.28,1-wire,2013-02-07 19:59:00,
2013-02-07 14:05:00,33.8,32.0,29.90,NE,54,1.0,3.0,93,-99.99,,,0.28,1-wire,2013-02-07 20:05:00,
2013-02-07 14:10:00,33.7,32.0,29.90,NE,42,0.0,3.0,93,-99.99,,,0.28,1-wire,2013-02-07 20:10:00,
2013-02-07 14:16:00,34.1,32.4,29.90,NE,42,1.0,3.0,93,-99.99,,,0.28,1-wire,2013-02-07 20:16:00,
2013-02-07 14:22:00,33.7,31.9,29.90,NE,41,1.0,3.0,93,-99.99,,,0.28,1-wire,2013-02-07 20:22:00,
2013-02-07 14:27:00,33.8,32.1,29.90,NE,41,0.0,3.0,93,-99.99,,,0.28,1-wire,2013-02-07 20:27:00,
2013-02-07 14:33:00,34.2,32.5,29.90,NE,41,1.0,3.0,94,-99.99,,,0.28,1-wire,2013-02-07 20:33:00,
2013-02-07 14:38:00,33.9,32.1,29.90,NE,37,2.0,3.0,93,-99.99,,,0.28,1-wire,2013-02-07 20:38:00,
2013-02-07 14:44:00,33.7,32.0,29.90,NE,37,0.0,0.0,93,-99.99,,,0.28,1-wire,2013-02-07 20:44:00,
2013-02-07 14:49:00,34.0,32.2,29.90,NE,37,1.0,3.0,93,-99.99,,,0.28,1-wire,2013-02-07 20:49:00,
2013-02-07 14:54:00,33.8,32.1,29.90,NE,42,1.0,3.0,94,-99.99,,,0.28,1-wire,2013-02-07 20:54:00,
2013-02-07 15:00:00,33.7,32.0,29.90,NE,42,1.0,6.0,94,-99.99,,,0.28,1-wire,2013-02-07 21:00:00,
2013-02-07 15:05:00,33.4,31.7,29.90,NE,42,2.0,6.0,94,-99.99,,,0.28,1-wire,2013-02-07 21:05:00,
2013-02-07 15:10:00,33.9,32.3,29.90,NE,42,0.0,0.0,94,-99.99,,,0.28,1-wire,2013-02-07 21:10:00,
2013-02-07 15:15:00,33.4,31.7,29.90,NE,42,3.0,6.0,94,-99.99,,,0.29,1-wire,2013-02-07 21:15:00,
2013-02-07 15:20:00,33.7,32.1,29.90,NE,42,0.0,0.0,94,-99.99,,,0.29,1-wire,2013-02-07 21:20:00,
2013-02-07 15:25:00,33.5,31.9,29.90,NE,37,2.0,6.0,94,-99.99,,,0.29,1-wire,2013-02-07 21:25:00,
2013-02-07 15:30:00,33.5,31.9,29.90,NE,37,0.0,3.0,94,-99.99,,,0.29,1-wire,2013-02-07 21:30:00,
2013-02-07 15:35:00,33.2,31.6,29.90,NE,37,3.0,6.0,94,-99.99,,,0.29,1-wire,2013-02-07 21:35:00,
2013-02-07 15:40:00,33.5,31.9,29.90,NNE,30,0.0,3.0,94,-99.99,,,0.29,1-wire,2013-02-07 21:40:00,
2013-02-07 15:45:00,33.2,31.6,29.90,NNE,30,0.0,3.0,94,-99.99,,,0.29,1-wire,2013-02-07 21:45:00,
2013-02-07 15:50:00,33.2,31.6,29.90,NNE,30,2.0,6.0,94,-99.99,,,0.29,1-wire,2013-02-07 21:50:00,
2013-02-07 15:55:00,33.2,31.6,29.90,NNE,33,1.0,3.0,94,-99.99,,,0.29,1-wire,2013-02-07 21:55:00,
2013-02-07 16:00:00,33.2,31.6,29.90,NNE,33,2.0,6.0,94,-99.99,,,0.29,1-wire,2013-02-07 22:00:00,
2013-02-07 16:05:00,33.4,31.9,29.90,NNE,33,1.0,3.0,94,-99.99,,,0.29,1-wire,2013-02-07 22:05:00,
2013-02-07 16:10:00,32.8,31.3,29.90,NNE,27,3.0,7.0,94,-99.99,,,0.29,1-wire,2013-02-07 22:10:00,
2013-02-07 16:15:00,32.5,31.0,29.90,NNE,27,2.0,6.0,94,-99.99,,,0.29,1-wire,2013-02-07 22:15:00,
2013-02-07 16:20:00,32.7,31.2,29.90,NNE,27,2.0,6.0,94,-99.99,,,0.29,1-wire,2013-02-07 22:20:00,
2013-02-07 16:25:00,32.3,30.9,29.90,NNE,33,5.0,11.0,94,-99.99,,,0.29,1-wire,2013-02-07 22:25:00,
2013-02-07 16:30:00,32.2,30.8,29.90,NNE,33,3.0,6.0,94,-99.99,,,0.29,1-wire,2013-02-07 22:30:00,
2013-02-07 16:35:00,31.8,30.3,29.91,NNE,33,6.0,9.0,94,-99.99,,,0.29,1-wire,2013-02-07 22:35:00,
2013-02-07 16:41:00,31.5,30.0,29.92,NNE,23,4.0,8.0,94,-99.99,,,0.29,1-wire,2013-02-07 22:41:00,
2013-02-07 16:47:00,31.4,29.9,29.92,NNE,23,4.0,9.0,94,-99.99,,,0.29,1-wire,2013-02-07 22:47:00,
2013-02-07 16:52:00,31.2,29.7,29.92,NNE,17,4.0,9.0,94,-99.99,,,0.29,1-wire,2013-02-07 22:52:00,
2013-02-07 16:57:00,30.7,29.3,29.92,NNE,17,3.0,6.0,94,-99.99,,,0.29,1-wire,2013-02-07 22:57:00,
2013-02-07 17:03:00,30.5,29.0,29.92,NNE,17,5.0,9.0,94,-99.99,,,0.29,1-wire,2013-02-07 23:03:00,
2013-02-07 17:08:00,30.4,28.9,29.92,North,7,5.0,9.0,94,-99.99,,,0.29,1-wire,2013-02-07 23:08:00,
2013-02-07 17:14:00,30.5,28.9,29.92,North,7,2.0,6.0,94,-99.99,,,0.29,1-wire,2013-02-07 23:14:00,
2013-02-07 17:19:00,30.1,28.7,29.92,North,7,3.0,6.0,94,-99.99,,,0.29,1-wire,2013-02-07 23:19:00,
2013-02-07 17:25:00,29.9,28.6,29.93,North,7,4.0,11.0,95,-99.99,,,0.29,1-wire,2013-02-07 23:25:00,
2013-02-07 17:30:00,29.3,28.1,29.93,North,7,5.0,10.0,95,-99.99,,,0.29,1-wire,2013-02-07 23:30:00,
2013-02-07 17:36:00,29.2,28.0,29.93,North,4,3.0,9.0,95,-99.99,,,0.29,1-wire,2013-02-07 23:36:00,
2013-02-07 17:41:00,29.1,27.9,29.93,North,4,5.0,9.0,95,-99.99,,,0.29,1-wire,2013-02-07 23:41:00,
2013-02-07 17:47:00,29.1,27.9,29.93,North,4,2.0,6.0,95,-99.99,,,0.29,1-wire,2013-02-07 23:47:00,
2013-02-07 17:52:00,29.1,27.9,29.94,North,3,0.0,3.0,95,-99.99,,,0.29,1-wire,2013-02-07 23:52:00,
2013-02-07 17:57:00,29.0,27.9,29.94,North,3,5.0,9.0,96,-99.99,,,0.29,1-wire,2013-02-07 23:57:00,
2013-02-07 18:02:00,28.9,27.8,29.94,North,3,4.0,8.0,95,-99.99,,,0.29,1-wire,2013-02-08 00:02:00,
2013-02-07 18:07:00,28.7,27.6,29.94,North,357,4.0,8.0,95,-99.99,,,0.29,1-wire,2013-02-08 00:07:00,
2013-02-07 18:12:00,28.7,27.5,29.94,North,357,5.0,9.0,95,-99.99,,,0.29,1-wire,2013-02-08 00:12:00,
2013-02-07 18:17:00,28.7,27.5,29.94,North,357,4.0,6.0,95,-99.99,,,0.29,1-wire,2013-02-08 00:17:00,
2013-02-07 18:22:00,28.7,27.5,29.95,North,5,2.0,6.0,95,-99.99,,,0.29,1-wire,2013-02-08 00:22:00,
2013-02-07 18:27:00,28.7,27.5,29.96,North,5,5.0,11.0,95,-99.99,,,0.29,1-wire,2013-02-08 00:27:00,
2013-02-07 18:32:00,28.5,27.3,29.96,North,5,3.0,6.0,95,-99.99,,,0.29,1-wire,2013-02-08 00:32:00,
2013-02-07 18:37:00,28.5,27.4,29.96,North,1,4.0,9.0,95,-99.99,,,0.29,1-wire,2013-02-08 00:37:00,
2013-02-07 18:42:00,28.5,27.3,29.96,North,1,5.0,8.0,95,-99.99,,,0.29,1-wire,2013-02-08 00:42:00,
2013-02-07 18:47:00,28.5,27.3,29.97,North,1,3.0,8.0,95,-99.99,,,0.29,1-wire,2013-02-08 00:47:00,
2013-02-07 18:52:00,28.6,27.3,29.97,North,4,3.0,6.0,95,-99.99,,,0.29,1-wire,2013-02-08 00:52:00,
2013-02-07 18:57:00,28.5,27.4,29.97,North,4,3.0,6.0,95,-99.99,,,0.29,1-wire,2013-02-08 00:57:00,
2013-02-07 19:02:00,28.6,27.4,29.97,North,4,4.0,8.0,95,-99.99,,,0.29,1-wire,2013-02-08 01:02:00,
2013-02-07 19:07:00,28.7,27.6,29.97,North,355,3.0,6.0,95,-99.99,,,0.29,1-wire,2013-02-08 01:07:00,
2013-02-07 19:12:00,28.4,27.2,29.97,North,355,3.0,6.0,95,-99.99,,,0.29,1-wire,2013-02-08 01:12:00,
2013-02-07 19:17:00,28.3,27.2,29.98,North,355,4.0,10.0,95,-99.99,,,0.29,1-wire,2013-02-08 01:17:00,
2013-02-07 19:22:00,28.0,26.9,29.97,North,353,5.0,8.0,96,-99.99,,,0.29,1-wire,2013-02-08 01:22:00,
2013-02-07 19:27:00,28.3,27.1,29.98,North,353,2.0,6.0,95,-99.99,,,0.29,1-wire,2013-02-08 01:27:00,
2013-02-07 19:32:00,28.1,27.0,29.98,North,353,5.0,8.0,96,-99.99,,,0.29,1-wire,2013-02-08 01:32:00,
2013-02-07 19:37:00,28.0,26.9,29.99,North,357,5.0,8.0,96,-99.99,,,0.29,1-wire,2013-02-08 01:37:00,
2013-02-07 19:42:00,27.9,26.8,29.99,North,357,6.0,11.0,96,-99.99,,,0.29,1-wire,2013-02-08 01:42:00,
2013-02-07 19:47:00,27.9,26.8,29.99,North,357,3.0,8.0,96,-99.99,,,0.29,1-wire,2013-02-08 01:47:00,
2013-02-07 19:52:00,27.7,26.6,29.99,North,357,4.0,9.0,96,-99.99,,,0.29,1-wire,2013-02-08 01:52:00,
2013-02-07 19:57:00,27.7,26.6,29.99,North,357,5.0,8.0,96,-99.99,,,0.29,1-wire,2013-02-08 01:57:00,
2013-02-07 20:02:00,27.6,26.5,30.00,North,357,4.0,8.0,96,-99.99,,,0.29,1-wire,2013-02-08 02:02:00,
2013-02-07 20:08:00,27.7,26.6,29.99,North,357,3.0,6.0,95,-99.99,,,0.29,1-wire,2013-02-08 02:08:00,
2013-02-07 20:13:00,27.4,26.3,30.00,North,357,5.0,9.0,96,-99.99,,,0.29,1-wire,2013-02-08 02:13:00,
2013-02-07 20:19:00,27.3,26.3,30.01,North,357,7.0,14.0,96,-99.99,,,0.29,1-wire,2013-02-08 02:19:00,
2013-02-07 20:24:00,27.3,26.3,30.01,North,360,5.0,10.0,96,-99.99,,,0.29,1-wire,2013-02-08 02:24:00,
2013-02-07 20:29:00,27.3,26.3,30.01,North,360,5.0,9.0,96,-99.99,,,0.29,1-wire,2013-02-08 02:29:00,
2013-02-07 20:35:00,27.3,26.3,30.01,North,360,4.0,8.0,96,-99.99,,,0.29,1-wire,2013-02-08 02:35:00,
2013-02-07 20:40:00,27.3,26.3,30.01,North,359,5.0,13.0,96,-99.99,,,0.29,1-wire,2013-02-08 02:40:00,
2013-02-07 20:45:00,27.1,26.2,30.02,North,359,4.0,8.0,96,-99.99,,,0.29,1-wire,2013-02-08 02:45:00,
2013-02-07 20:51:00,26.9,26.0,30.03,North,360,5.0,9.0,96,-99.99,,,0.29,1-wire,2013-02-08 02:51:00,
2013-02-07 20:56:00,27.1,26.2,30.03,North,360,3.0,8.0,96,-99.99,,,0.29,1-wire,2013-02-08 02:56:00,
2013-02-07 21:02:00,26.4,25.5,30.03,North,360,5.0,10.0,96,-99.99,,,0.29,1-wire,2013-02-08 03:02:00,
2013-02-07 21:07:00,26.2,25.3,30.03,North,359,3.0,6.0,96,-99.99,,,0.29,1-wire,2013-02-08 03:07:00,
2013-02-07 21:13:00,25.7,25.0,30.03,North,359,7.0,14.0,97,-99.99,,,0.29,1-wire,2013-02-08 03:13:00,
2013-02-07 21:18:00,25.8,25.1,30.04,North,359,4.0,6.0,97,-99.99,,,0.29,1-wire,2013-02-08 03:18:00,
2013-02-07 21:23:00,25.8,25.1,30.03,North,3,7.0,17.0,97,-99.99,,,0.29,1-wire,2013-02-08 03:23:00,
2013-02-07 21:28:00,26.0,25.2,30.03,North,3,4.0,6.0,97,-99.99,,,0.29,1-wire,2013-02-08 03:28:00,
2013-02-07 21:33:00,25.8,25.2,30.03,North,3,6.0,11.0,97,-99.99,,,0.29,1-wire,2013-02-08 03:33:00,
2013-02-07 21:38:00,25.7,25.1,30.04,North,2,6.0,13.0,98,-99.99,,,0.29,1-wire,2013-02-08 03:38:00,
2013-02-07 21:43:00,25.6,25.0,30.04,North,2,5.0,8.0,97,-99.99,,,0.29,1-wire,2013-02-08 03:43:00,
2013-02-07 21:48:00,25.0,24.6,30.04,North,2,6.0,9.0,98,-99.99,,,0.29,1-wire,2013-02-08 03:48:00,
2013-02-07 21:53:00,24.8,24.2,30.04,North,2,5.0,14.0,98,-99.99,,,0.29,1-wire,2013-02-08 03:53:00,
2013-02-07 21:58:00,24.2,23.7,30.05,North,2,8.0,16.0,98,-99.99,,,0.29,1-wire,2013-02-08 03:58:00,
2013-02-07 22:03:00,24.2,23.7,30.05,North,2,3.0,6.0,98,-99.99,,,0.29,1-wire,2013-02-08 04:03:00,
2013-02-07 22:08:00,24.1,23.5,30.04,NNE,16,7.0,14.0,98,-99.99,,,0.29,1-wire,2013-02-08 04:08:00,
2013-02-07 22:13:00,24.0,23.4,30.04,NNE,16,5.0,9.0,98,-99.99,,,0.29,1-wire,2013-02-08 04:13:00,
2013-02-07 22:18:00,24.2,23.6,30.05,NNE,16,4.0,8.0,98,-99.99,,,0.29,1-wire,2013-02-08 04:18:00,
2013-02-07 22:23:00,24.0,23.4,30.05,NNE,13,5.0,11.0,98,-99.99,,,0.29,1-wire,2013-02-08 04:23:00,
2013-02-07 22:28:00,24.1,23.4,30.05,NNE,13,6.0,11.0,97,-99.99,,,0.29,1-wire,2013-02-08 04:28:00,
2013-02-07 22:33:00,24.1,23.5,30.05,NNE,13,5.0,9.0,97,-99.99,,,0.29,1-wire,2013-02-08 04:33:00,
2013-02-07 22:38:00,24.1,23.5,30.05,North,7,4.0,6.0,98,-99.99,,,0.29,1-wire,2013-02-08 04:38:00,
2013-02-07 22:43:00,24.0,23.4,30.05,North,7,5.0,11.0,97,-99.99,,,0.29,1-wire,2013-02-08 04:43:00,
2013-02-07 22:48:00,24.0,23.4,30.05,North,7,3.0,6.0,97,-99.99,,,0.29,1-wire,2013-02-08 04:48:00,
2013-02-07 22:54:00,23.5,22.9,30.05,North,9,6.0,11.0,98,-99.99,,,0.29,1-wire,2013-02-08 04:54:00,
2013-02-07 22:59:00,23.5,22.9,30.06,North,9,3.0,6.0,97,-99.99,,,0.29,1-wire,2013-02-08 04:59:00,
2013-02-07 23:00:00,23.4,22.8,30.06,North,9,4.0,11.0,97,-99.99,,,0.29,1-wire,2013-02-08 05:00:00,
2013-02-07 23:06:00,23.3,22.7,30.05,North,11,4.0,9.0,97,-99.99,,,0.29,1-wire,2013-02-08 05:06:00,
2013-02-07 23:09:00,23.3,22.7,30.05,North,11,3.0,9.0,98,-99.99,,,0.29,1-wire,2013-02-08 05:09:00,
2013-02-07 23:14:00,23.3,22.7,30.06,North,11,6.0,10.0,97,-99.99,,,0.29,1-wire,2013-02-08 05:14:00,
2013-02-07 23:19:00,23.0,22.3,30.06,North,11,8.0,17.0,97,-99.99,,,0.29,1-wire,2013-02-08 05:19:00,
2013-02-07 23:21:00,23.0,22.3,30.07,NNE,14,5.0,9.0,97,-99.99,,,0.29,1-wire,2013-02-08 05:21:00,
2013-02-07 23:26:00,22.9,22.2,30.07,NNE,14,5.0,9.0,97,-99.99,,,0.29,1-wire,2013-02-08 05:26:00,
2013-02-07 23:27:00,22.8,22.0,30.07,NNE,14,6.0,11.0,97,-99.99,,,0.29,1-wire,2013-02-08 05:27:00,
2013-02-07 23:32:00,22.7,21.9,30.07,NNE,14,5.0,9.0,97,-99.99,,,0.29,1-wire,2013-02-08 05:32:00,
2013-02-07 23:37:00,22.6,21.8,30.07,North,11,4.0,11.0,97,-99.99,,,0.29,1-wire,2013-02-08 05:37:00,
2013-02-07 23:42:00,22.6,21.7,30.07,North,11,4.0,8.0,96,-99.99,,,0.29,1-wire,2013-02-08 05:42:00,
2013-02-07 23:48:00,22.4,21.5,30.07,North,11,4.0,9.0,96,-99.99,,,0.29,1-wire,2013-02-08 05:48:00,
2013-02-07 23:53:00,22.5,21.4,30.07,North,8,3.0,6.0,95,-99.99,,,0.29,1-wire,2013-02-08 05:53:00,
2013-02-07 23:59:00,22.5,21.4,30.07,North,8,6.0,11.0,95,-99.99,,,0.29,1-wire,2013-02-08 05:59:00,